createdAt,value
2019-04-28T00:00:21.464Z,22.64
2019-04-28T00:01:21.129Z,22.59
2019-04-28T00:02:22.422Z,22.59
2019-04-28T00:03:21.039Z,22.66
2019-04-28T00:04:21.492Z,22.63
2019-04-28T00:05:21.170Z,22.70
2019-04-28T00:06:21.199Z,22.69
2019-04-28T00:07:21.587Z,22.60
2019-04-28T00:08:20.978Z,22.66
2019-04-28T00:09:21.367Z,22.64
2019-04-28T00:10:21.034Z,22.67
2019-04-28T00:11:21.627Z,22.66
2019-04-28T00:12:22.797Z,22.69
2019-04-28T00:13:20.990Z,22.75
2019-04-28T00:14:21.889Z,22.69
2019-04-28T00:15:20.939Z,22.72
2019-04-28T00:16:22.849Z,22.75
2019-04-28T00:17:21.248Z,22.76
2019-04-28T00:18:21.941Z,22.61
2019-04-28T00:19:21.017Z,22.74
2019-04-28T00:20:21.402Z,22.75
2019-04-28T00:21:20.967Z,22.75
2019-04-28T00:22:20.980Z,22.82
2019-04-28T00:23:21.678Z,22.75
2019-04-28T00:24:21.071Z,22.84
2019-04-28T00:25:21.487Z,22.82
2019-04-28T00:26:21.204Z,22.82
2019-04-28T00:27:21.637Z,22.86
2019-04-28T00:28:33.489Z,22.84
2019-04-28T00:29:21.096Z,22.85
2019-04-28T00:30:21.744Z,22.82
2019-04-28T00:31:21.269Z,22.84
2019-04-28T00:32:21.079Z,22.82
2019-04-28T00:33:22.621Z,22.82
2019-04-28T00:34:21.229Z,22.81
2019-04-28T00:35:21.537Z,22.81
2019-04-28T00:36:21.588Z,22.74
2019-04-28T00:37:21.174Z,22.81
2019-04-28T00:38:21.563Z,22.74
2019-04-28T00:39:22.517Z,22.75
2019-04-28T00:40:21.752Z,22.75
2019-04-28T00:41:21.375Z,22.81
2019-04-28T00:42:22.633Z,22.75
2019-04-28T00:43:21.801Z,22.81
2019-04-28T00:44:21.804Z,22.76
2019-04-28T00:45:21.512Z,22.75
2019-04-28T00:46:21.126Z,22.78
2019-04-28T00:47:21.017Z,22.81
2019-04-28T00:48:21.001Z,22.74
2019-04-28T00:49:21.495Z,22.78
2019-04-28T00:50:21.728Z,22.70
2019-04-28T00:51:21.327Z,22.78
2019-04-28T00:52:22.159Z,22.74
2019-04-28T00:53:20.652Z,22.75
2019-04-28T00:54:21.849Z,22.81
2019-04-28T00:55:21.022Z,22.81
2019-04-28T00:56:21.812Z,22.79
2019-04-28T00:57:21.017Z,22.82
2019-04-28T00:58:20.935Z,22.74
2019-04-28T00:59:31.606Z,22.74
2019-04-28T01:00:21.518Z,22.78
2019-04-28T01:01:21.352Z,22.74
2019-04-28T01:02:21.170Z,22.84
2019-04-28T01:03:21.505Z,22.78
2019-04-28T01:04:21.904Z,22.75
2019-04-28T01:05:21.357Z,22.81
2019-04-28T01:06:22.255Z,22.81
2019-04-28T01:07:21.278Z,22.81
2019-04-28T01:08:20.946Z,22.75
2019-04-28T01:09:21.856Z,22.74
2019-04-28T01:10:21.035Z,22.76
2019-04-28T01:11:21.764Z,22.81
2019-04-28T01:12:21.233Z,22.79
2019-04-28T01:13:21.443Z,22.82
2019-04-28T01:14:21.317Z,22.84
2019-04-28T01:15:20.279Z,22.86
2019-04-28T01:16:20.287Z,22.91
2019-04-28T01:17:20.229Z,22.84
2019-04-28T01:18:21.810Z,22.86
2019-04-28T01:19:20.344Z,22.82
2019-04-28T01:20:20.204Z,22.82
2019-04-28T01:21:20.374Z,22.81
2019-04-28T01:22:20.284Z,22.81
2019-04-28T01:23:20.396Z,22.85
2019-04-28T01:24:20.173Z,22.82
2019-04-28T01:25:20.417Z,22.76
2019-04-28T01:26:20.154Z,22.86
2019-04-28T01:27:20.431Z,22.75
2019-04-28T01:28:21.337Z,22.74
2019-04-28T01:29:20.098Z,22.78
2019-04-28T01:30:32.109Z,22.79
2019-04-28T01:31:21.252Z,22.79
2019-04-28T01:32:20.436Z,22.76
2019-04-28T01:33:20.603Z,22.76
2019-04-28T01:34:20.536Z,22.82
2019-04-28T01:35:21.065Z,22.78
2019-04-28T01:36:20.343Z,22.74
2019-04-28T01:37:20.011Z,22.74
2019-04-28T01:38:20.446Z,22.72
2019-04-28T01:39:20.154Z,22.74
2019-04-28T01:40:20.633Z,22.74
2019-04-28T01:41:19.975Z,22.79
2019-04-28T01:42:20.445Z,22.79
2019-04-28T01:43:19.948Z,22.79
2019-04-28T01:44:19.991Z,22.78
2019-04-28T01:45:20.578Z,22.74
2019-04-28T01:46:19.975Z,22.74
2019-04-28T01:47:20.477Z,22.75
2019-04-28T01:48:20.011Z,22.70
2019-04-28T01:49:19.887Z,22.70
2019-04-28T01:50:20.454Z,22.72
2019-04-28T01:51:20.889Z,22.70
2019-04-28T01:52:20.346Z,22.69
2019-04-28T01:53:20.019Z,22.70
2019-04-28T01:54:20.045Z,22.70
2019-04-28T01:55:20.090Z,22.79
2019-04-28T01:56:20.459Z,22.79
2019-04-28T01:57:21.469Z,22.84
2019-04-28T01:58:20.473Z,22.76
2019-04-28T01:59:20.119Z,22.76
2019-04-28T02:00:24.966Z,22.76
2019-04-28T02:02:33.621Z,22.81
2019-04-28T02:03:33.569Z,22.78
2019-04-28T02:04:33.564Z,22.81
2019-04-28T02:05:33.547Z,22.79
2019-04-28T02:06:33.536Z,22.76
2019-04-28T02:07:33.533Z,22.81
2019-04-28T02:08:33.534Z,22.82
2019-04-28T02:09:33.504Z,22.84
2019-04-28T02:10:33.494Z,22.82
2019-04-28T02:11:33.482Z,22.78
2019-04-28T02:12:33.476Z,22.79
2019-04-28T02:13:33.467Z,22.69
2019-04-28T02:14:33.492Z,22.70
2019-04-28T02:15:33.444Z,22.75
2019-04-28T02:16:33.432Z,22.78
2019-04-28T02:17:33.419Z,22.70
2019-04-28T02:18:33.409Z,22.72
2019-04-28T02:19:33.399Z,22.76
2019-04-28T02:20:33.429Z,22.74
2019-04-28T02:21:33.377Z,22.75
2019-04-28T02:22:33.363Z,22.72
2019-04-28T02:23:33.358Z,22.81
2019-04-28T02:24:33.344Z,22.64
2019-04-28T02:25:33.337Z,22.72
2019-04-28T02:26:33.334Z,22.75
2019-04-28T02:27:33.313Z,22.75
2019-04-28T02:28:33.301Z,22.72
2019-04-28T02:29:33.295Z,22.69
2019-04-28T02:30:47.754Z,22.72
2019-04-28T02:31:34.345Z,22.79
2019-04-28T02:32:40.818Z,22.74
2019-04-28T02:33:33.244Z,22.79
2019-04-28T02:34:33.241Z,22.81
2019-04-28T02:35:34.244Z,22.79
2019-04-28T02:36:33.220Z,22.81
2019-04-28T02:37:33.242Z,22.78
2019-04-28T02:38:34.356Z,22.74
2019-04-28T02:39:33.181Z,22.81
2019-04-28T02:40:33.179Z,22.84
2019-04-28T02:41:33.851Z,22.75
2019-04-28T02:42:33.152Z,22.75
2019-04-28T02:43:33.176Z,22.74
2019-04-28T02:44:35.149Z,22.72
2019-04-28T02:45:33.122Z,22.75
2019-04-28T02:46:33.105Z,22.75
2019-04-28T02:47:34.164Z,22.72
2019-04-28T02:48:33.086Z,22.79
2019-04-28T02:49:33.106Z,22.69
2019-04-28T02:50:33.247Z,22.72
2019-04-28T02:51:33.055Z,22.72
2019-04-28T02:52:33.046Z,22.76
2019-04-28T02:53:33.685Z,22.72
2019-04-28T02:54:33.020Z,22.67
2019-04-28T02:55:33.050Z,22.69
2019-04-28T02:56:33.005Z,22.75
2019-04-28T02:57:32.990Z,22.69
2019-04-28T02:58:32.978Z,22.76
2019-04-28T02:59:32.969Z,22.70
2019-04-28T03:00:32.959Z,22.74
2019-04-28T03:01:32.996Z,22.74
2019-04-28T03:02:32.934Z,22.72
2019-04-28T03:03:45.102Z,22.67
2019-04-28T03:04:32.915Z,22.72
2019-04-28T03:05:33.520Z,22.75
2019-04-28T03:06:32.892Z,22.81
2019-04-28T03:07:32.920Z,22.76
2019-04-28T03:08:32.878Z,22.81
2019-04-28T03:09:32.864Z,22.78
2019-04-28T03:10:32.852Z,22.72
2019-04-28T03:11:32.836Z,22.78
2019-04-28T03:12:32.837Z,22.74
2019-04-28T03:13:32.850Z,22.74
2019-04-28T03:14:32.813Z,22.72
2019-04-28T03:15:32.796Z,22.74
2019-04-28T03:16:32.794Z,22.79
2019-04-28T03:17:32.781Z,22.82
2019-04-28T03:18:32.763Z,22.84
2019-04-28T03:19:34.082Z,22.78
2019-04-28T03:20:32.739Z,22.81
2019-04-28T03:21:32.740Z,22.82
2019-04-28T03:22:33.747Z,22.82
2019-04-28T03:23:32.708Z,22.89
2019-04-28T03:24:32.692Z,22.88
2019-04-28T03:25:33.574Z,22.88
2019-04-28T03:26:32.683Z,22.88
2019-04-28T03:27:32.665Z,22.86
2019-04-28T03:28:33.670Z,22.88
2019-04-28T03:29:32.638Z,22.85
2019-04-28T03:30:33.983Z,22.78
2019-04-28T03:32:00.909Z,22.81
2019-04-28T03:32:45.036Z,22.78
2019-04-28T03:33:41.494Z,22.78
2019-04-28T03:34:44.592Z,22.76
2019-04-28T03:35:32.989Z,22.82
2019-04-28T03:36:33.522Z,22.82
2019-04-28T03:37:32.557Z,22.84
2019-04-28T03:38:32.545Z,22.86
2019-04-28T03:39:32.536Z,22.82
2019-04-28T03:40:33.744Z,22.93
2019-04-28T03:41:32.516Z,22.91
2019-04-28T03:42:32.514Z,22.82
2019-04-28T03:43:32.491Z,22.81
2019-04-28T03:44:33.866Z,22.82
2019-04-28T03:45:32.466Z,22.82
2019-04-28T03:46:32.469Z,22.94
2019-04-28T03:47:32.492Z,22.89
2019-04-28T03:48:33.763Z,22.82
2019-04-28T03:49:32.468Z,22.82
2019-04-28T03:50:32.413Z,22.89
2019-04-28T03:51:32.403Z,22.88
2019-04-28T03:52:32.390Z,22.84
2019-04-28T03:53:32.413Z,22.88
2019-04-28T03:54:32.369Z,22.86
2019-04-28T03:55:34.924Z,22.88
2019-04-28T03:56:32.353Z,22.89
2019-04-28T03:57:32.340Z,22.86
2019-04-28T03:58:32.359Z,22.91
2019-04-28T03:59:32.323Z,22.99
2019-04-28T04:00:32.310Z,22.85
2019-04-28T04:01:32.295Z,22.86
2019-04-28T04:02:32.284Z,22.84
2019-04-28T04:03:32.276Z,22.93
2019-04-28T04:04:32.410Z,22.94
2019-04-28T04:05:42.913Z,22.84
2019-04-28T04:06:32.263Z,22.88
2019-04-28T04:07:32.234Z,22.89
2019-04-28T04:08:32.222Z,22.99
2019-04-28T04:09:32.210Z,22.97
2019-04-28T04:10:32.240Z,22.86
2019-04-28T04:11:32.196Z,22.89
2019-04-28T04:12:32.182Z,22.97
2019-04-28T04:13:33.060Z,22.96
2019-04-28T04:14:32.152Z,22.93
2019-04-28T04:15:32.143Z,22.88
2019-04-28T04:16:32.174Z,22.85
2019-04-28T04:17:33.640Z,22.86
2019-04-28T04:18:32.112Z,22.86
2019-04-28T04:19:32.106Z,22.91
2019-04-28T04:20:32.094Z,22.97
2019-04-28T04:21:32.083Z,22.96
2019-04-28T04:22:32.172Z,22.94
2019-04-28T04:23:32.056Z,22.99
2019-04-28T04:24:32.053Z,23.06
2019-04-28T04:25:32.037Z,23.00
2019-04-28T04:26:33.608Z,23.00
2019-04-28T04:27:32.017Z,22.96
2019-04-28T04:28:32.042Z,22.88
2019-04-28T04:29:31.990Z,22.94
2019-04-28T04:30:31.982Z,22.88
2019-04-28T04:31:32.153Z,22.96
2019-04-28T04:32:34.077Z,22.86
2019-04-28T04:33:31.955Z,22.94
2019-04-28T04:34:31.976Z,23.06
2019-04-28T04:35:31.931Z,23.11
2019-04-28T04:36:42.376Z,23.00
2019-04-28T04:37:31.911Z,23.11
2019-04-28T04:38:31.899Z,23.04
2019-04-28T04:39:31.883Z,23.01
2019-04-28T04:40:32.104Z,23.06
2019-04-28T04:41:31.861Z,23.00
2019-04-28T04:42:31.849Z,22.97
2019-04-28T04:43:31.845Z,22.94
2019-04-28T04:44:31.836Z,22.97
2019-04-28T04:45:31.835Z,23.04
2019-04-28T04:46:31.817Z,23.11
2019-04-28T04:47:32.933Z,23.07
2019-04-28T04:48:31.796Z,23.04
2019-04-28T04:49:31.818Z,23.07
2019-04-28T04:50:31.772Z,23.07
2019-04-28T04:51:31.793Z,23.06
2019-04-28T04:52:31.749Z,22.99
2019-04-28T04:53:31.740Z,22.99
2019-04-28T04:54:32.762Z,23.00
2019-04-28T04:55:31.714Z,23.00
2019-04-28T04:56:31.700Z,22.94
2019-04-28T04:57:32.663Z,22.99
2019-04-28T04:58:31.683Z,23.06
2019-04-28T04:59:31.667Z,23.06
2019-04-28T05:00:31.660Z,23.07
2019-04-28T05:01:31.655Z,23.06
2019-04-28T05:02:33.094Z,23.06
2019-04-28T05:03:31.638Z,22.99
2019-04-28T05:04:31.611Z,23.01
2019-04-28T05:05:31.611Z,23.03
2019-04-28T05:06:31.590Z,22.96
2019-04-28T05:07:41.946Z,23.00
2019-04-28T05:08:31.567Z,22.96
2019-04-28T05:09:31.592Z,22.99
2019-04-28T05:10:31.546Z,23.06
2019-04-28T05:11:31.537Z,23.04
2019-04-28T05:12:31.527Z,23.01
2019-04-28T05:13:31.518Z,23.04
2019-04-28T05:14:31.506Z,23.09
2019-04-28T05:15:31.510Z,23.11
2019-04-28T05:16:31.485Z,23.03
2019-04-28T05:17:31.472Z,23.09
2019-04-28T05:18:31.459Z,23.07
2019-04-28T05:19:32.432Z,23.06
2019-04-28T05:20:31.445Z,23.19
2019-04-28T05:21:33.492Z,23.22
2019-04-28T05:22:31.417Z,23.16
2019-04-28T05:23:31.422Z,23.18
2019-04-28T05:24:31.398Z,23.22
2019-04-28T05:25:32.609Z,23.25
2019-04-28T05:26:31.390Z,23.14
2019-04-28T05:27:32.538Z,23.14
2019-04-28T05:28:36.397Z,23.16
2019-04-28T05:29:32.340Z,23.21
2019-04-28T05:30:34.919Z,23.22
2019-04-28T05:31:32.362Z,23.15
2019-04-28T05:32:42.464Z,23.09
2019-04-28T05:33:34.030Z,23.04
2019-04-28T05:34:31.294Z,23.04
2019-04-28T05:35:31.279Z,23.09
2019-04-28T05:36:40.755Z,23.15
2019-04-28T05:37:32.292Z,23.18
2019-04-28T05:38:43.150Z,23.11
2019-04-28T05:39:31.233Z,23.18
2019-04-28T05:40:31.230Z,23.07
2019-04-28T05:41:31.216Z,23.22
2019-04-28T05:42:31.205Z,23.14
2019-04-28T05:43:31.233Z,23.19
2019-04-28T05:44:32.079Z,23.01
2019-04-28T05:45:32.225Z,23.19
2019-04-28T05:46:31.157Z,23.04
2019-04-28T05:47:31.146Z,23.09
2019-04-28T05:48:31.140Z,23.15
2019-04-28T05:49:31.150Z,23.21
2019-04-28T05:50:31.120Z,23.15
2019-04-28T05:51:31.106Z,23.09
2019-04-28T05:52:31.110Z,23.19
2019-04-28T05:53:31.080Z,23.18
2019-04-28T05:54:31.482Z,23.19
2019-04-28T05:55:31.077Z,23.18
2019-04-28T05:56:31.055Z,23.18
2019-04-28T05:57:31.037Z,23.15
2019-04-28T05:58:31.030Z,23.21
2019-04-28T05:59:31.017Z,23.18
2019-04-28T06:00:31.046Z,23.23
2019-04-28T06:01:30.994Z,23.21
2019-04-28T06:02:30.983Z,23.18
2019-04-28T06:03:30.973Z,23.18
2019-04-28T06:04:30.967Z,23.18
2019-04-28T06:05:31.967Z,23.23
2019-04-28T06:06:30.956Z,23.22
2019-04-28T06:07:30.933Z,23.22
2019-04-28T06:08:30.919Z,23.25
2019-04-28T06:09:41.002Z,23.11
2019-04-28T06:10:30.904Z,23.21
2019-04-28T06:11:30.912Z,23.19
2019-04-28T06:12:32.009Z,23.21
2019-04-28T06:13:30.870Z,23.16
2019-04-28T06:14:30.854Z,23.21
2019-04-28T06:15:30.849Z,23.22
2019-04-28T06:16:30.832Z,23.23
2019-04-28T06:17:30.841Z,23.22
2019-04-28T06:18:30.879Z,23.21
2019-04-28T06:19:30.800Z,23.19
2019-04-28T06:20:30.793Z,23.21
2019-04-28T06:21:30.786Z,23.15
2019-04-28T06:22:30.775Z,23.15
2019-04-28T06:23:30.801Z,23.19
2019-04-28T06:24:30.748Z,23.31
2019-04-28T06:25:30.780Z,23.35
2019-04-28T06:26:30.732Z,23.32
2019-04-28T06:27:32.628Z,23.31
2019-04-28T06:28:30.710Z,23.37
2019-04-28T06:29:30.781Z,23.39
2019-04-28T06:30:30.683Z,23.25
2019-04-28T06:31:30.675Z,23.26
2019-04-28T06:32:30.659Z,23.35
2019-04-28T06:33:30.653Z,23.34
2019-04-28T06:34:30.642Z,23.29
2019-04-28T06:35:30.668Z,23.26
2019-04-28T06:36:30.615Z,23.34
2019-04-28T06:37:30.643Z,23.25
2019-04-28T06:38:30.599Z,23.34
2019-04-28T06:39:30.589Z,23.32
2019-04-28T06:40:41.118Z,23.26
2019-04-28T06:41:30.566Z,23.21
2019-04-28T06:42:30.554Z,23.23
2019-04-28T06:43:30.547Z,23.16
2019-04-28T06:44:30.534Z,23.19
2019-04-28T06:45:30.538Z,23.26
2019-04-28T06:46:30.525Z,23.22
2019-04-28T06:47:30.501Z,23.16
2019-04-28T06:48:30.488Z,23.19
2019-04-28T06:49:30.475Z,23.16
2019-04-28T06:50:30.470Z,23.23
2019-04-28T06:51:30.490Z,23.23
2019-04-28T06:52:30.449Z,23.21
2019-04-28T06:53:30.441Z,23.23
2019-04-28T06:54:30.427Z,23.26
2019-04-28T06:55:30.415Z,23.26
2019-04-28T06:56:30.400Z,23.21
2019-04-28T06:57:30.428Z,23.23
2019-04-28T06:58:30.388Z,23.25
2019-04-28T06:59:30.370Z,23.22
2019-04-28T07:00:30.362Z,23.29
2019-04-28T07:01:30.348Z,23.32
2019-04-28T07:02:30.339Z,23.34
2019-04-28T07:03:30.343Z,23.31
2019-04-28T07:04:30.313Z,23.34
2019-04-28T07:05:30.312Z,23.34
2019-04-28T07:06:30.297Z,23.29
2019-04-28T07:07:30.281Z,23.23
2019-04-28T07:08:30.311Z,23.29
2019-04-28T07:09:30.361Z,23.38
2019-04-28T07:10:30.253Z,23.22
2019-04-28T07:11:42.102Z,23.34
2019-04-28T07:12:30.228Z,23.29
2019-04-28T07:13:30.220Z,23.39
2019-04-28T07:14:30.226Z,23.26
2019-04-28T07:15:30.199Z,23.26
2019-04-28T07:16:30.183Z,23.25
2019-04-28T07:17:30.174Z,23.23
2019-04-28T07:18:30.163Z,23.21
2019-04-28T07:19:30.154Z,23.23
2019-04-28T07:20:30.177Z,23.29
2019-04-28T07:21:30.129Z,23.23
2019-04-28T07:22:30.122Z,23.26
2019-04-28T07:23:30.109Z,23.25
2019-04-28T07:24:30.102Z,23.31
2019-04-28T07:25:30.096Z,23.31
2019-04-28T07:26:30.115Z,23.25
2019-04-28T07:27:30.067Z,23.23
2019-04-28T07:28:30.053Z,23.22
2019-04-28T07:29:30.055Z,23.35
2019-04-28T07:30:30.045Z,23.29
2019-04-28T07:31:30.026Z,23.37
2019-04-28T07:32:30.053Z,23.31
2019-04-28T07:33:35.776Z,23.31
2019-04-28T07:34:30.989Z,23.31
2019-04-28T07:35:29.981Z,23.25
2019-04-28T07:36:29.971Z,23.23
2019-04-28T07:37:29.964Z,23.19
2019-04-28T07:38:29.988Z,23.23
2019-04-28T07:39:29.937Z,23.25
2019-04-28T07:40:29.925Z,23.26
2019-04-28T07:41:29.915Z,23.38
2019-04-28T07:42:40.806Z,23.29
2019-04-28T07:43:29.893Z,23.32
2019-04-28T07:44:29.894Z,23.35
2019-04-28T07:45:29.872Z,23.32
2019-04-28T07:46:29.866Z,23.26
2019-04-28T07:47:29.852Z,23.26
2019-04-28T07:48:29.847Z,23.37
2019-04-28T07:49:29.868Z,23.37
2019-04-28T07:50:29.827Z,23.23
2019-04-28T07:51:29.807Z,23.25
2019-04-28T07:52:29.796Z,23.39
2019-04-28T07:53:29.786Z,23.25
2019-04-28T07:54:29.776Z,23.25
2019-04-28T07:55:29.790Z,23.22
2019-04-28T07:56:29.758Z,23.21
2019-04-28T07:57:29.748Z,23.22
2019-04-28T07:58:29.733Z,23.26
2019-04-28T07:59:29.728Z,23.31
2019-04-28T08:00:29.718Z,23.34
2019-04-28T08:01:29.740Z,23.31
2019-04-28T08:02:29.694Z,23.29
2019-04-28T08:03:29.682Z,23.35
2019-04-28T08:04:29.668Z,23.37
2019-04-28T08:05:29.661Z,23.35
2019-04-28T08:06:29.647Z,23.29
2019-04-28T08:07:29.654Z,23.32
2019-04-28T08:08:29.625Z,23.31
2019-04-28T08:09:29.620Z,23.29
2019-04-28T08:10:29.604Z,23.35
2019-04-28T08:11:29.594Z,23.39
2019-04-28T08:12:29.627Z,23.29
2019-04-28T08:13:40.177Z,23.37
2019-04-28T08:14:29.561Z,23.32
2019-04-28T08:15:29.558Z,23.29
2019-04-28T08:16:29.548Z,23.38
2019-04-28T08:17:29.536Z,23.42
2019-04-28T08:18:31.639Z,23.38
2019-04-28T08:19:29.508Z,23.41
2019-04-28T08:20:29.500Z,23.31
2019-04-28T08:21:29.492Z,23.38
2019-04-28T08:22:29.477Z,23.44
2019-04-28T08:23:29.463Z,23.42
2019-04-28T08:24:29.496Z,23.38
2019-04-28T08:25:29.442Z,23.44
2019-04-28T08:26:29.437Z,23.45
2019-04-28T08:27:29.421Z,23.52
2019-04-28T08:28:29.416Z,23.53
2019-04-28T08:29:29.400Z,23.54
2019-04-28T08:30:29.400Z,23.59
2019-04-28T08:31:29.386Z,23.52
2019-04-28T08:32:29.369Z,23.56
2019-04-28T08:33:29.469Z,23.60
2019-04-28T08:34:29.357Z,23.64
2019-04-28T08:35:29.352Z,23.63
2019-04-28T08:36:29.340Z,23.63
2019-04-28T08:37:29.321Z,23.68
2019-04-28T08:38:29.307Z,23.60
2019-04-28T08:39:29.296Z,23.68
2019-04-28T08:40:29.289Z,23.63
2019-04-28T08:41:29.319Z,23.68
2019-04-28T08:42:29.264Z,23.68
2019-04-28T08:43:29.256Z,23.68
2019-04-28T08:44:39.813Z,23.62
2019-04-28T08:45:29.235Z,23.68
2019-04-28T08:46:29.224Z,23.67
2019-04-28T08:47:29.252Z,23.68
2019-04-28T08:48:29.200Z,23.63
2019-04-28T08:49:29.193Z,23.64
2019-04-28T08:50:29.185Z,23.63
2019-04-28T08:51:29.178Z,23.68
2019-04-28T08:52:29.157Z,23.63
2019-04-28T08:53:29.160Z,23.68
2019-04-28T08:54:29.139Z,23.72
2019-04-28T08:55:29.128Z,23.79
2019-04-28T08:56:29.117Z,23.74
2019-04-28T08:57:29.104Z,23.71
2019-04-28T08:58:29.133Z,23.71
2019-04-28T08:59:29.086Z,23.71
2019-04-28T09:00:29.096Z,23.74
2019-04-28T09:01:29.067Z,23.69
2019-04-28T09:02:29.049Z,23.71
2019-04-28T09:03:29.039Z,23.67
2019-04-28T09:04:29.064Z,23.68
2019-04-28T09:05:29.026Z,23.64
2019-04-28T09:06:29.012Z,23.72
2019-04-28T09:07:28.994Z,23.75
2019-04-28T09:08:28.987Z,23.75
2019-04-28T09:09:28.979Z,23.72
2019-04-28T09:10:28.989Z,23.71
2019-04-28T09:11:28.956Z,23.69
2019-04-28T09:12:28.951Z,23.77
2019-04-28T09:13:28.933Z,23.71
2019-04-28T09:14:28.927Z,23.71
2019-04-28T09:15:39.798Z,23.78
2019-04-28T09:16:28.901Z,23.74
2019-04-28T09:17:28.900Z,23.77
2019-04-28T09:18:28.881Z,23.71
2019-04-28T09:19:28.878Z,23.74
2019-04-28T09:20:28.857Z,23.63
2019-04-28T09:21:28.867Z,23.64
2019-04-28T09:22:28.835Z,23.68
2019-04-28T09:23:28.827Z,23.74
2019-04-28T09:24:28.815Z,23.77
2019-04-28T09:25:28.811Z,23.78
2019-04-28T09:26:28.797Z,23.69
2019-04-28T09:27:28.798Z,23.77
2019-04-28T09:28:28.779Z,23.79
2019-04-28T09:29:28.765Z,23.74
2019-04-28T09:30:28.757Z,23.86
2019-04-28T09:31:28.740Z,23.84
2019-04-28T09:32:28.766Z,23.87
2019-04-28T09:33:28.720Z,23.86
2019-04-28T09:34:28.830Z,23.86
2019-04-28T09:35:28.697Z,23.93
2019-04-28T09:36:28.688Z,24.02
2019-04-28T09:37:28.677Z,23.93
2019-04-28T09:38:28.705Z,23.99
2019-04-28T09:39:28.659Z,23.87
2019-04-28T09:40:28.643Z,23.96
2019-04-28T09:41:28.636Z,24.00
2019-04-28T09:42:28.624Z,23.99
2019-04-28T09:43:28.614Z,23.96
2019-04-28T09:44:28.619Z,23.97
2019-04-28T09:45:28.589Z,24.02
2019-04-28T09:46:38.527Z,23.97
2019-04-28T09:47:28.572Z,23.99
2019-04-28T09:48:28.564Z,24.02
2019-04-28T09:49:28.554Z,24.08
2019-04-28T09:50:28.553Z,24.02
2019-04-28T09:51:28.528Z,24.04
2019-04-28T09:52:28.517Z,24.09
2019-04-28T09:53:28.510Z,24.06
2019-04-28T09:54:28.494Z,24.05
2019-04-28T09:55:28.504Z,23.99
2019-04-28T09:56:28.482Z,24.15
2019-04-28T09:57:28.470Z,24.05
2019-04-28T09:58:28.456Z,24.11
2019-04-28T09:59:28.440Z,24.02
2019-04-28T10:00:28.437Z,24.11
2019-04-28T10:01:28.465Z,24.15
2019-04-28T10:02:28.415Z,24.14
2019-04-28T10:03:28.401Z,24.18
2019-04-28T10:04:40.712Z,24.19
2019-04-28T10:05:29.403Z,24.16
2019-04-28T10:06:28.371Z,24.19
2019-04-28T10:07:28.368Z,24.26
2019-04-28T10:08:28.347Z,24.24
2019-04-28T10:09:28.344Z,24.16
2019-04-28T10:10:28.332Z,24.19
2019-04-28T10:11:30.682Z,24.18
2019-04-28T10:12:28.306Z,24.24
2019-04-28T10:13:28.299Z,24.18
2019-04-28T10:14:28.287Z,24.26
2019-04-28T10:15:28.271Z,24.27
2019-04-28T10:16:28.263Z,24.33
2019-04-28T10:17:39.346Z,24.33
2019-04-28T10:18:28.249Z,24.34
2019-04-28T10:19:28.232Z,24.36
2019-04-28T10:20:28.221Z,24.42
2019-04-28T10:21:28.210Z,24.34
2019-04-28T10:22:28.206Z,24.37
2019-04-28T10:23:28.233Z,24.41
2019-04-28T10:24:28.177Z,24.39
2019-04-28T10:25:28.170Z,24.41
2019-04-28T10:26:28.156Z,24.39
2019-04-28T10:27:28.149Z,24.52
2019-04-28T10:28:28.136Z,24.41
2019-04-28T10:29:28.197Z,24.42
2019-04-28T10:30:28.111Z,24.46
2019-04-28T10:31:28.101Z,24.48
2019-04-28T10:32:28.098Z,24.53
2019-04-28T10:33:28.085Z,24.56
2019-04-28T10:34:28.069Z,24.52
2019-04-28T10:35:28.072Z,24.59
2019-04-28T10:36:28.050Z,24.53
2019-04-28T10:37:28.037Z,24.49
2019-04-28T10:38:28.034Z,24.49
2019-04-28T10:39:28.026Z,24.55
2019-04-28T10:40:28.042Z,24.52
2019-04-28T10:41:27.994Z,24.46
2019-04-28T10:42:27.984Z,24.51
2019-04-28T10:43:27.978Z,24.55
2019-04-28T10:44:27.969Z,24.53
2019-04-28T10:45:27.951Z,24.52
2019-04-28T10:46:27.991Z,24.53
2019-04-28T10:47:27.934Z,24.53
2019-04-28T10:48:37.968Z,24.49
2019-04-28T10:49:27.916Z,24.48
2019-04-28T10:50:27.905Z,24.52
2019-04-28T10:51:27.892Z,24.49
2019-04-28T10:52:27.928Z,24.45
2019-04-28T10:53:27.868Z,24.44
2019-04-28T10:54:27.861Z,24.52
2019-04-28T10:55:27.853Z,24.44
2019-04-28T10:56:27.838Z,24.45
2019-04-28T10:57:27.829Z,24.44
2019-04-28T10:58:27.864Z,24.55
2019-04-28T10:59:27.802Z,24.46
2019-04-28T11:00:27.794Z,24.60
2019-04-28T11:01:27.786Z,24.52
2019-04-28T11:02:27.778Z,24.41
2019-04-28T11:03:27.761Z,24.42
2019-04-28T11:04:27.787Z,24.49
2019-04-28T11:05:27.767Z,24.37
2019-04-28T11:06:27.728Z,24.34
2019-04-28T11:07:27.775Z,24.33
2019-04-28T11:08:27.710Z,24.33
2019-04-28T11:09:30.686Z,24.33
2019-04-28T11:10:27.893Z,24.36
2019-04-28T11:11:27.683Z,24.41
2019-04-28T11:12:27.683Z,24.42
2019-04-28T11:13:27.657Z,24.37
2019-04-28T11:14:27.662Z,24.37
2019-04-28T11:15:27.647Z,24.39
2019-04-28T11:16:27.619Z,24.36
2019-04-28T11:17:27.612Z,24.37
2019-04-28T11:18:27.601Z,24.42
2019-04-28T11:19:37.392Z,24.37
2019-04-28T11:20:27.588Z,24.36
2019-04-28T11:21:27.580Z,24.39
2019-04-28T11:22:27.555Z,24.33
2019-04-28T11:23:27.547Z,24.34
2019-04-28T11:24:27.536Z,24.23
2019-04-28T11:25:27.527Z,24.24
2019-04-28T11:26:27.549Z,24.30
2019-04-28T11:27:27.508Z,24.23
2019-04-28T11:28:27.496Z,24.24
2019-04-28T11:29:27.480Z,24.24
2019-04-28T11:30:27.477Z,24.31
2019-04-28T11:31:27.465Z,24.31
2019-04-28T11:32:27.471Z,24.26
2019-04-28T11:33:27.443Z,24.21
2019-04-28T11:34:27.428Z,24.36
2019-04-28T11:35:27.472Z,24.31
2019-04-28T11:36:27.411Z,24.33
2019-04-28T11:37:27.397Z,24.34
2019-04-28T11:38:27.432Z,24.41
2019-04-28T11:39:27.380Z,24.36
2019-04-28T11:40:27.363Z,24.45
2019-04-28T11:41:27.354Z,24.42
2019-04-28T11:42:27.342Z,24.42
2019-04-28T11:43:27.334Z,24.46
2019-04-28T11:44:27.364Z,24.51
2019-04-28T11:45:27.315Z,24.48
2019-04-28T11:46:27.306Z,24.56
2019-04-28T11:47:27.291Z,24.55
2019-04-28T11:48:27.280Z,24.56
2019-04-28T11:49:27.277Z,24.59
2019-04-28T11:50:37.500Z,24.77
2019-04-28T11:51:27.245Z,24.74
2019-04-28T11:52:27.241Z,24.77
2019-04-28T11:53:27.226Z,24.83
2019-04-28T11:54:27.212Z,24.82
2019-04-28T11:55:27.203Z,24.93
2019-04-28T11:56:27.202Z,24.97
2019-04-28T11:57:27.189Z,25.07
2019-04-28T11:58:27.172Z,25.02
2019-04-28T11:59:27.165Z,25.08
2019-04-28T12:00:27.153Z,25.14
2019-04-28T12:01:27.160Z,25.11
2019-04-28T12:02:27.137Z,25.24
2019-04-28T12:03:27.127Z,25.29
2019-04-28T12:04:27.117Z,25.19
2019-04-28T12:05:34.338Z,25.26
2019-04-28T12:06:28.157Z,25.20
2019-04-28T12:07:27.096Z,25.39
2019-04-28T12:08:27.069Z,25.38
2019-04-28T12:09:27.058Z,25.35
2019-04-28T12:10:27.044Z,25.42
2019-04-28T12:11:27.041Z,25.42
2019-04-28T12:12:27.023Z,25.49
2019-04-28T12:13:27.035Z,25.48
2019-04-28T12:14:27.002Z,25.54
2019-04-28T12:15:26.997Z,25.61
2019-04-28T12:16:26.990Z,25.63
2019-04-28T12:17:26.969Z,25.69
2019-04-28T12:18:26.961Z,25.69
2019-04-28T12:19:26.958Z,25.81
2019-04-28T12:20:26.938Z,25.79
2019-04-28T12:21:38.005Z,25.85
2019-04-28T12:22:26.917Z,25.83
2019-04-28T12:23:26.944Z,25.85
2019-04-28T12:24:26.894Z,25.85
2019-04-28T12:25:26.890Z,25.96
2019-04-28T12:26:26.880Z,25.98
2019-04-28T12:27:26.871Z,25.98
2019-04-28T12:28:26.858Z,26.04
2019-04-28T12:29:26.939Z,25.97
2019-04-28T12:30:26.838Z,25.97
2019-04-28T12:31:26.820Z,26.01
2019-04-28T12:32:26.813Z,25.93
2019-04-28T12:33:26.808Z,26.04
2019-04-28T12:34:26.797Z,25.97
2019-04-28T12:35:26.818Z,26.04
2019-04-28T12:36:26.773Z,26.09
2019-04-28T12:37:26.760Z,26.08
2019-04-28T12:38:26.748Z,26.08
2019-04-28T12:39:26.744Z,26.04
2019-04-28T12:40:26.731Z,26.00
2019-04-28T12:41:26.881Z,26.08
2019-04-28T12:42:26.712Z,26.08
2019-04-28T12:43:26.702Z,25.96
2019-04-28T12:44:26.686Z,26.04
2019-04-28T12:45:34.821Z,25.96
2019-04-28T12:46:27.671Z,25.93
2019-04-28T12:47:26.673Z,26.04
2019-04-28T12:48:26.643Z,26.04
2019-04-28T12:49:26.640Z,25.97
2019-04-28T12:50:26.625Z,26.04
2019-04-28T12:51:26.610Z,26.01
2019-04-28T12:52:37.053Z,26.08
2019-04-28T12:53:26.588Z,26.04